createdAt,value
2019-04-26T00:01:47.975Z,1.87
2019-04-26T00:04:18.296Z,1.80
2019-04-26T00:06:48.738Z,3.53
2019-04-26T00:09:24.849Z,1.70
2019-04-26T00:12:05.390Z,1.53
2019-04-26T00:14:49.808Z,1.43
2019-04-26T00:17:26.594Z,2.43
2019-04-26T00:19:56.032Z,2.30
2019-04-26T00:22:25.604Z,2.03
2019-04-26T00:24:55.252Z,1.70
2019-04-26T00:27:24.373Z,2.10
2019-04-26T00:29:53.576Z,2.20
2019-04-26T00:32:22.723Z,5.30
2019-04-26T00:34:51.883Z,1.97
2019-04-26T00:37:21.041Z,1.50
2019-04-26T00:39:50.262Z,1.73
2019-04-26T00:42:20.589Z,1.63
2019-04-26T00:44:49.948Z,1.70
2019-04-26T00:47:21.097Z,2.10
2019-04-26T00:49:50.695Z,1.73
2019-04-26T00:52:21.628Z,2.53
2019-04-26T00:54:50.930Z,2.90
2019-04-26T00:57:20.771Z,2.50
2019-04-26T00:59:50.583Z,1.70
2019-04-26T01:02:26.541Z,3.33
2019-04-26T01:04:55.682Z,1.60
2019-04-26T01:07:25.327Z,1.90
2019-04-26T01:09:54.501Z,1.90
2019-04-26T01:12:24.012Z,3.10
2019-04-26T01:14:53.132Z,2.07
2019-04-26T01:17:22.418Z,3.20
2019-04-26T01:19:53.421Z,2.00
2019-04-26T01:22:27.634Z,2.40
2019-04-26T01:24:57.254Z,1.80
2019-04-26T01:27:28.824Z,2.83
2019-04-26T01:30:04.158Z,2.20
2019-04-26T01:32:34.801Z,2.57
2019-04-26T01:35:04.264Z,2.83
2019-04-26T01:37:34.656Z,4.40
2019-04-26T01:40:09.546Z,2.27
2019-04-26T01:43:03.052Z,2.30
2019-04-26T01:45:39.603Z,2.10
2019-04-26T01:48:31.937Z,2.77
2019-04-26T01:51:01.118Z,2.73
2019-04-26T01:53:30.247Z,2.10
2019-04-26T01:55:59.413Z,4.27
2019-04-26T01:58:29.569Z,2.53
2019-04-26T02:01:10.158Z,2.07
2019-04-26T02:03:39.351Z,2.47
2019-04-26T02:06:08.565Z,2.30
2019-04-26T02:08:37.697Z,2.40
2019-04-26T02:11:06.942Z,2.07
2019-04-26T02:13:36.066Z,2.53
2019-04-26T02:16:05.242Z,3.30
2019-04-26T02:18:34.575Z,2.70
2019-04-26T02:21:35.803Z,2.57
2019-04-26T02:24:11.095Z,3.17
2019-04-26T02:26:42.956Z,3.27
2019-04-26T02:29:16.104Z,3.00
2019-04-26T02:31:48.158Z,5.67
2019-04-26T02:34:17.459Z,2.90
2019-04-26T02:36:57.191Z,3.67
2019-04-26T02:39:20.302Z,2.97
2019-04-26T02:41:52.681Z,3.00
2019-04-26T02:44:26.674Z,2.47
2019-04-26T02:47:51.217Z,3.80
2019-04-26T02:50:31.203Z,2.80
2019-04-26T02:53:21.020Z,2.53
2019-04-26T02:56:24.418Z,3.17
2019-04-26T02:59:34.110Z,2.77
2019-04-26T03:02:06.657Z,2.53
2019-04-26T03:04:39.653Z,3.60
2019-04-26T03:07:18.376Z,2.73
2019-04-26T03:09:50.868Z,2.80
2019-04-26T03:12:22.235Z,3.10
2019-04-26T03:15:13.684Z,3.20
2019-04-26T03:17:54.785Z,3.27
2019-04-26T03:20:32.592Z,2.70
2019-04-26T03:23:45.799Z,2.30
2019-04-26T03:26:39.516Z,3.10
2019-04-26T03:29:28.387Z,2.60
2019-04-26T03:32:49.335Z,2.30
2019-04-26T03:35:55.315Z,2.77
2019-04-26T03:38:41.926Z,2.23
2019-04-26T03:41:27.151Z,4.00
2019-04-26T03:44:25.965Z,2.47
2019-04-26T03:46:59.814Z,2.70
2019-04-26T03:49:54.780Z,2.47
2019-04-26T03:52:48.434Z,2.50
2019-04-26T03:56:03.686Z,2.90
2019-04-26T03:59:00.638Z,3.70
2019-04-26T04:01:35.404Z,4.07
2019-04-26T04:04:24.615Z,4.10
2019-04-26T04:07:03.712Z,3.53
2019-04-26T04:09:28.625Z,3.27
2019-04-26T04:12:11.724Z,2.70
2019-04-26T04:14:59.399Z,3.20
2019-04-26T04:17:45.405Z,5.40
2019-04-26T04:20:49.605Z,3.67
2019-04-26T04:23:34.472Z,3.40
2019-04-26T04:26:06.944Z,4.10
2019-04-26T04:28:48.255Z,8.33
2019-04-26T04:31:24.876Z,4.00
2019-04-26T04:34:06.463Z,3.60
2019-04-26T04:36:51.541Z,3.97
2019-04-26T04:39:35.078Z,5.37
2019-04-26T04:42:28.552Z,4.17
2019-04-26T04:45:25.325Z,4.27
2019-04-26T04:48:38.372Z,4.73
2019-04-26T04:51:44.876Z,5.40
2019-04-26T04:54:25.206Z,4.00
2019-04-26T04:57:13.870Z,4.17
2019-04-26T05:00:27.444Z,4.13
2019-04-26T05:03:28.359Z,5.60
2019-04-26T05:06:21.774Z,6.40
2019-04-26T05:09:06.615Z,7.27
2019-04-26T05:11:53.988Z,6.43
2019-04-26T05:15:13.396Z,3.63
2019-04-26T05:18:04.119Z,2.87
2019-04-26T05:20:53.271Z,4.53
2019-04-26T05:23:51.526Z,3.30
2019-04-26T05:27:31.724Z,2.57
2019-04-26T05:31:14.958Z,4.10
2019-04-26T05:34:35.902Z,3.60
2019-04-26T05:37:42.415Z,3.47
2019-04-26T05:41:01.184Z,2.83
2019-04-26T05:44:16.032Z,5.07
2019-04-26T05:47:35.974Z,2.53
2019-04-26T05:51:08.070Z,2.60
2019-04-26T05:54:42.942Z,4.23
2019-04-26T05:57:37.008Z,3.87
2019-04-26T06:00:33.630Z,3.03
2019-04-26T06:03:33.208Z,3.20
2019-04-26T06:06:37.646Z,3.70
2019-04-26T06:09:34.275Z,10.87
2019-04-26T06:12:32.530Z,3.90
2019-04-26T06:15:28.956Z,4.10
2019-04-26T06:18:31.529Z,5.27
2019-04-26T06:21:13.356Z,6.30
2019-04-26T06:24:25.973Z,6.13
2019-04-26T06:27:49.201Z,5.30
2019-04-26T06:30:26.348Z,6.83
2019-04-26T06:33:20.644Z,4.87
2019-04-26T06:35:54.755Z,4.80
2019-04-26T06:39:19.116Z,4.70
2019-04-26T06:42:28.530Z,4.50
2019-04-26T06:45:44.206Z,5.20
2019-04-26T06:48:28.014Z,3.70
2019-04-26T06:51:05.029Z,4.53
2019-04-26T06:54:02.068Z,4.60
2019-04-26T06:56:50.360Z,4.20
2019-04-26T07:00:04.468Z,3.80
2019-04-26T07:02:55.268Z,3.33
2019-04-26T07:05:29.245Z,3.73
2019-04-26T07:08:28.090Z,3.53
2019-04-26T07:12:03.049Z,3.80
2019-04-26T07:15:05.879Z,3.60
2019-04-26T07:17:49.222Z,5.00
2019-04-26T07:20:37.150Z,5.07
2019-04-26T07:23:54.850Z,4.37
2019-04-26T07:26:56.761Z,3.57
2019-04-26T07:30:13.503Z,4.40
2019-04-26T07:33:20.785Z,2.90
2019-04-26T07:36:16.467Z,2.53
2019-04-26T07:39:19.886Z,2.13
2019-04-26T07:42:16.192Z,2.13
2019-04-26T07:45:23.843Z,1.43
2019-04-26T07:48:47.920Z,1.67
2019-04-26T07:52:02.774Z,2.60
2019-04-26T07:55:28.332Z,2.40
2019-04-26T07:58:52.955Z,2.10
2019-04-26T08:01:56.517Z,2.13
2019-04-26T08:04:33.764Z,1.87
2019-04-26T08:07:13.258Z,2.43
2019-04-26T08:09:59.601Z,1.70
2019-04-26T08:12:22.762Z,2.30
2019-04-26T08:15:38.473Z,1.80
2019-04-26T08:18:34.617Z,1.57
2019-04-26T08:21:16.815Z,1.93
2019-04-26T08:24:02.873Z,1.90
2019-04-26T08:26:35.117Z,2.90
2019-04-26T08:29:06.869Z,2.00
2019-04-26T08:31:38.932Z,1.60
2019-04-26T08:34:12.408Z,2.53
2019-04-26T08:36:57.265Z,1.93
2019-04-26T08:39:44.559Z,2.90
2019-04-26T08:42:03.370Z,4.50
2019-04-26T08:44:47.195Z,1.27
2019-04-26T08:47:39.694Z,2.40
2019-04-26T08:50:38.467Z,1.80
2019-04-26T08:53:09.634Z,1.50
2019-04-26T08:55:41.824Z,1.77
2019-04-26T08:58:13.895Z,1.63
2019-04-26T09:00:53.126Z,2.23
2019-04-26T09:03:44.253Z,2.43
2019-04-26T09:06:37.260Z,3.27
2019-04-26T09:09:21.967Z,4.60
2019-04-26T09:11:59.744Z,1.63
2019-04-26T09:14:27.198Z,1.83
2019-04-26T09:16:56.560Z,1.87
2019-04-26T09:19:26.188Z,2.00
2019-04-26T09:22:15.586Z,2.80
2019-04-26T09:25:09.749Z,2.87
2019-04-26T09:27:58.986Z,1.57
2019-04-26T09:30:38.582Z,2.00
2019-04-26T09:33:26.162Z,1.60
2019-04-26T09:35:55.348Z,2.00
2019-04-26T09:38:24.551Z,2.23
2019-04-26T09:40:56.290Z,2.60
2019-04-26T09:43:37.891Z,2.03
2019-04-26T09:46:26.112Z,2.73
2019-04-26T09:49:15.921Z,1.53
2019-04-26T09:51:45.086Z,1.93
2019-04-26T09:54:15.539Z,2.97
2019-04-26T09:56:44.707Z,2.23
2019-04-26T09:59:14.032Z,1.90
2019-04-26T10:01:43.151Z,1.90
2019-04-26T10:04:12.482Z,1.67
2019-04-26T10:06:41.746Z,5.63
2019-04-26T10:09:17.232Z,2.10
2019-04-26T10:11:54.062Z,2.73
2019-04-26T10:14:57.674Z,2.60
2019-04-26T10:17:31.440Z,2.33
2019-04-26T10:20:00.601Z,2.30
2019-04-26T10:22:32.576Z,3.83
2019-04-26T10:25:02.357Z,2.30
2019-04-26T10:27:36.085Z,2.77
2019-04-26T10:30:08.881Z,3.90
2019-04-26T10:32:35.924Z,3.50
2019-04-26T10:35:05.346Z,3.30
2019-04-26T10:37:39.759Z,2.00
2019-04-26T10:40:06.299Z,2.20
2019-04-26T10:42:35.468Z,1.60
2019-04-26T10:45:05.608Z,2.70
2019-04-26T10:47:38.382Z,2.27
2019-04-26T10:50:05.938Z,2.30
2019-04-26T10:52:54.401Z,2.00
2019-04-26T10:55:41.350Z,1.80
2019-04-26T10:58:16.366Z,1.93
2019-04-26T11:00:48.360Z,2.60
2019-04-26T11:03:18.444Z,1.97
2019-04-26T11:05:49.291Z,2.40
2019-04-26T11:08:18.818Z,2.00
2019-04-26T11:10:49.088Z,2.30
2019-04-26T11:13:18.261Z,1.80
2019-04-26T11:15:47.739Z,1.53
2019-04-26T11:18:19.815Z,2.30
2019-04-26T11:20:47.878Z,1.60
2019-04-26T11:23:17.050Z,2.13
2019-04-26T11:25:46.258Z,2.80
2019-04-26T11:28:17.143Z,2.07
2019-04-26T11:30:48.054Z,2.03
2019-04-26T11:33:17.592Z,2.63
2019-04-26T11:35:46.767Z,4.20
2019-04-26T11:38:15.962Z,1.87
2019-04-26T11:40:49.808Z,1.73
2019-04-26T11:43:19.555Z,1.60
2019-04-26T11:45:49.343Z,1.97
2019-04-26T11:48:18.005Z,2.17
2019-04-26T11:50:48.164Z,3.97
2019-04-26T11:53:18.132Z,1.93
2019-04-26T11:55:47.290Z,1.53
2019-04-26T11:58:17.818Z,1.57
2019-04-26T12:00:52.324Z,1.73
2019-04-26T12:03:24.908Z,1.40
2019-04-26T12:06:02.353Z,1.90
2019-04-26T12:08:50.458Z,1.67
2019-04-26T12:11:25.939Z,1.93
2019-04-26T12:13:50.573Z,1.73
2019-04-26T12:16:20.478Z,1.30
2019-04-26T12:18:49.855Z,1.13
2019-04-26T12:21:19.032Z,1.13
2019-04-26T12:23:51.419Z,1.73
2019-04-26T12:26:21.735Z,1.00
2019-04-26T12:28:50.162Z,1.40
2019-04-26T12:31:19.346Z,1.00
2019-04-26T12:33:48.557Z,1.17
2019-04-26T12:36:17.743Z,1.10
2019-04-26T12:38:46.887Z,1.73
2019-04-26T12:41:17.175Z,1.30
2019-04-26T12:43:47.071Z,1.30
2019-04-26T12:46:38.324Z,1.23
2019-04-26T12:49:07.552Z,1.27
2019-04-26T12:51:38.403Z,1.67
2019-04-26T12:54:08.227Z,1.20
2019-04-26T12:56:38.447Z,1.50
2019-04-26T12:59:07.702Z,1.43
2019-04-26T13:01:36.952Z,1.27
2019-04-26T13:04:07.038Z,3.87
2019-04-26T13:06:43.016Z,1.20
2019-04-26T13:09:15.651Z,1.83
2019-04-26T13:12:19.150Z,1.10
2019-04-26T13:15:05.456Z,1.30
2019-04-26T13:17:47.333Z,1.40
2019-04-26T13:20:16.504Z,1.47
2019-04-26T13:22:46.482Z,1.77
2019-04-26T13:25:26.216Z,2.40
2019-04-26T13:27:47.528Z,1.57
2019-04-26T13:30:16.893Z,1.43
2019-04-26T13:32:49.305Z,5.93
2019-04-26T13:35:16.990Z,1.60
2019-04-26T13:37:46.142Z,1.53
2019-04-26T13:40:15.676Z,1.40
2019-04-26T13:42:47.379Z,1.60
2019-04-26T13:45:40.688Z,1.30
2019-04-26T13:48:31.807Z,1.40
2019-04-26T13:51:06.035Z,2.77
2019-04-26T13:53:35.151Z,1.80
2019-04-26T13:56:04.331Z,1.70
2019-04-26T13:58:33.517Z,1.60
2019-04-26T14:01:04.551Z,2.57
2019-04-26T14:03:33.747Z,1.30
2019-04-26T14:06:02.990Z,2.20
2019-04-26T14:08:32.192Z,1.70
2019-04-26T14:11:01.352Z,2.27
2019-04-26T14:13:30.515Z,1.50
2019-04-26T14:15:59.944Z,2.07
2019-04-26T14:18:30.312Z,2.10
2019-04-26T14:21:00.176Z,2.37
2019-04-26T14:23:45.235Z,4.23
2019-04-26T14:28:58.118Z,2.90
2019-04-26T14:31:28.039Z,3.23
2019-04-26T14:33:57.215Z,3.73
2019-04-26T14:36:26.897Z,2.40
2019-04-26T14:39:05.533Z,3.60
2019-04-26T14:41:27.805Z,2.70
2019-04-26T14:43:57.878Z,2.97
2019-04-26T14:46:27.064Z,4.40
2019-04-26T14:49:02.115Z,3.00
2019-04-26T14:51:27.154Z,2.63
2019-04-26T14:53:56.382Z,3.73
2019-04-26T14:56:29.249Z,3.33
2019-04-26T14:58:56.490Z,2.80
2019-04-26T15:01:52.270Z,2.73
2019-04-26T15:04:48.267Z,5.63
2019-04-26T15:07:17.404Z,2.60
2019-04-26T15:09:46.610Z,3.07
2019-04-26T15:12:15.993Z,2.50
2019-04-26T15:14:45.543Z,2.77
2019-04-26T15:17:16.399Z,2.50
2019-04-26T15:19:47.220Z,2.70
2019-04-26T15:22:16.577Z,2.07
2019-04-26T15:24:45.762Z,1.90
2019-04-26T15:27:15.013Z,2.27
2019-04-26T15:29:44.155Z,1.57
2019-04-26T15:32:13.309Z,2.97
2019-04-26T15:34:42.449Z,3.07
2019-04-26T15:37:12.876Z,1.93
2019-04-26T15:39:58.263Z,2.97
2019-04-26T15:42:42.209Z,1.40
2019-04-26T15:45:39.024Z,2.40
2019-04-26T15:48:28.775Z,1.90
2019-04-26T15:50:58.206Z,2.77
2019-04-26T15:53:27.386Z,1.57
2019-04-26T15:55:56.570Z,2.73
2019-04-26T15:58:26.065Z,1.80
2019-04-26T16:00:55.316Z,1.50
2019-04-26T16:03:24.473Z,2.17
2019-04-26T16:05:53.673Z,1.97
2019-04-26T16:08:22.948Z,2.60
2019-04-26T16:10:53.218Z,1.93
2019-04-26T16:13:24.085Z,1.97
2019-04-26T16:15:53.712Z,2.40
2019-04-26T16:18:22.954Z,2.37
2019-04-26T16:20:53.352Z,2.20
2019-04-26T16:23:24.164Z,1.80
2019-04-26T16:25:53.595Z,4.07
2019-04-26T16:28:33.329Z,1.90
2019-04-26T16:31:32.207Z,3.70
2019-04-26T16:34:10.449Z,1.50
2019-04-26T16:36:36.722Z,1.60
2019-04-26T16:39:09.242Z,1.60
2019-04-26T16:41:38.397Z,2.60
2019-04-26T16:44:07.606Z,2.90
2019-04-26T16:46:36.725Z,2.00
2019-04-26T16:49:11.354Z,1.67
2019-04-26T16:51:37.272Z,2.07
2019-04-26T16:54:10.253Z,3.17
2019-04-26T16:56:37.345Z,5.53
2019-04-26T16:59:06.782Z,2.00
2019-04-26T17:01:38.105Z,2.23
2019-04-26T17:04:11.169Z,1.93
2019-04-26T17:06:44.364Z,3.03
2019-04-26T17:09:08.950Z,2.63
2019-04-26T17:11:41.314Z,1.53
2019-04-26T17:14:10.343Z,3.13
2019-04-26T17:16:39.998Z,2.23
2019-04-26T17:19:09.268Z,1.80
2019-04-26T17:21:45.260Z,2.30
2019-04-26T17:24:22.956Z,2.00
2019-04-26T17:26:56.353Z,1.70
2019-04-26T17:29:25.535Z,2.30
2019-04-26T17:31:54.700Z,2.43
2019-04-26T17:34:28.748Z,5.00
2019-04-26T17:36:54.843Z,3.77
2019-04-26T17:39:24.037Z,3.00
2019-04-26T17:41:54.414Z,2.30
2019-04-26T17:44:26.566Z,3.13
2019-04-26T17:46:57.046Z,3.83
2019-04-26T17:49:27.498Z,3.63
2019-04-26T17:51:58.401Z,6.10
2019-04-26T17:54:43.729Z,4.20
2019-04-26T17:56:59.599Z,7.67
2019-04-26T17:59:34.613Z,7.13
2019-04-26T18:02:01.068Z,3.47
2019-04-26T18:04:36.035Z,5.43
2019-04-26T18:07:06.834Z,4.33
2019-04-26T18:09:45.853Z,7.33
2019-04-26T18:12:04.673Z,7.20
2019-04-26T18:14:33.830Z,7.07
2019-04-26T18:17:14.222Z,9.57
2019-04-26T18:19:50.892Z,14.77
2019-04-26T18:22:45.049Z,13.63
2019-04-26T18:25:14.831Z,10.47
2019-04-26T18:27:44.023Z,7.40
2019-04-26T18:30:14.355Z,7.27
2019-04-26T18:32:47.851Z,4.67
2019-04-26T18:35:16.829Z,4.33
2019-04-26T18:37:45.767Z,5.57
2019-04-26T18:40:15.067Z,3.50
2019-04-26T18:42:44.524Z,4.67
2019-04-26T18:45:14.051Z,4.57
2019-04-26T18:47:45.055Z,3.53
2019-04-26T18:50:15.366Z,3.77
2019-04-26T18:53:03.500Z,3.20
2019-04-26T18:55:34.382Z,4.03
2019-04-26T18:58:05.500Z,4.37
2019-04-26T19:00:37.497Z,4.80
2019-04-26T19:03:07.022Z,3.57
2019-04-26T19:05:36.295Z,9.50
2019-04-26T19:08:07.358Z,44.87
2019-04-26T19:10:36.925Z,80.33
2019-04-26T19:13:18.266Z,21.37
2019-04-26T19:15:54.375Z,8.93
2019-04-26T19:18:33.973Z,7.13
2019-04-26T19:21:13.059Z,5.13
2019-04-26T19:23:42.203Z,5.53
2019-04-26T19:26:13.782Z,5.53
2019-04-26T19:28:44.374Z,5.30
2019-04-26T19:31:13.271Z,7.17
2019-04-26T19:33:42.886Z,5.10
2019-04-26T19:36:13.752Z,6.10
2019-04-26T19:38:43.725Z,8.27
2019-04-26T19:41:17.339Z,5.53
2019-04-26T19:43:46.191Z,4.47
2019-04-26T19:46:32.231Z,4.87
2019-04-26T19:49:33.452Z,4.87
2019-04-26T19:52:39.485Z,4.17
2019-04-26T19:55:28.237Z,5.00
2019-04-26T19:58:05.816Z,4.13
2019-04-26T20:00:38.609Z,4.87
2019-04-26T20:03:08.565Z,4.23
2019-04-26T20:05:40.434Z,6.00
2019-04-26T20:08:09.545Z,5.47
2019-04-26T20:10:40.538Z,7.07
2019-04-26T20:13:14.978Z,6.43
2019-04-26T20:15:42.253Z,9.33
2019-04-26T20:18:12.273Z,8.27
2019-04-26T20:20:41.631Z,6.83
2019-04-26T20:23:12.378Z,5.60
2019-04-26T20:25:41.619Z,5.60
2019-04-26T20:28:12.194Z,5.10
2019-04-26T20:30:57.838Z,5.77
2019-04-26T20:33:30.463Z,5.70
2019-04-26T20:36:01.450Z,6.37
2019-04-26T20:38:28.287Z,8.47
2019-04-26T20:40:57.499Z,4.90
2019-04-26T20:43:26.896Z,6.30
2019-04-26T20:46:10.868Z,6.13
2019-04-26T20:48:30.005Z,5.20
2019-04-26T20:50:57.953Z,7.50
2019-04-26T20:53:30.829Z,6.60
2019-04-26T20:55:58.062Z,6.53
2019-04-26T20:58:27.265Z,8.67
2019-04-26T21:00:56.479Z,4.87
2019-04-26T21:03:27.772Z,7.37
2019-04-26T21:05:58.971Z,5.07
2019-04-26T21:08:27.660Z,5.27
2019-04-26T21:11:00.258Z,5.23
2019-04-26T21:13:30.574Z,6.87
2019-04-26T21:16:03.564Z,7.03
2019-04-26T21:18:33.779Z,6.80
2019-04-26T21:21:01.500Z,8.80
2019-04-26T21:23:34.997Z,7.57
2019-04-26T21:26:17.585Z,7.43
2019-04-26T21:29:07.315Z,7.20
2019-04-26T21:31:59.473Z,7.50
2019-04-26T21:34:34.495Z,8.43
2019-04-26T21:37:22.176Z,6.80
2019-04-26T21:40:05.682Z,7.60
2019-04-26T21:42:34.795Z,13.30
2019-04-26T21:45:04.465Z,7.80
2019-04-26T21:47:35.521Z,8.70
2019-04-26T21:50:04.844Z,6.93
2019-04-26T21:52:34.376Z,10.70
2019-04-26T21:55:04.610Z,8.27
2019-04-26T21:57:34.992Z,8.90
2019-04-26T22:00:08.020Z,7.50
2019-04-26T22:02:37.550Z,7.80
2019-04-26T22:05:08.097Z,4.70
2019-04-26T22:07:39.494Z,6.93
2019-04-26T22:10:18.384Z,6.83
2019-04-26T22:12:47.527Z,5.90
2019-04-26T22:15:37.509Z,6.50
2019-04-26T22:18:21.252Z,7.07
2019-04-26T22:20:55.675Z,6.17
2019-04-26T22:23:38.978Z,5.60
2019-04-26T22:26:09.273Z,6.20
2019-04-26T22:28:38.450Z,6.17
2019-04-26T22:31:08.618Z,5.80
2019-04-26T22:33:38.269Z,6.83
2019-04-26T22:36:07.624Z,6.57
2019-04-26T22:38:36.819Z,6.50
2019-04-26T22:41:05.987Z,5.53
2019-04-26T22:43:55.236Z,5.23
2019-04-26T22:46:47.327Z,7.50
2019-04-26T22:49:13.924Z,7.10
2019-04-26T22:51:43.605Z,6.17
2019-04-26T22:54:12.862Z,7.70
2019-04-26T22:56:43.824Z,7.03
2019-04-26T22:59:13.952Z,6.00
2019-04-26T23:01:44.796Z,6.00
2019-04-26T23:04:16.323Z,6.20
2019-04-26T23:06:47.044Z,6.77
2019-04-26T23:09:20.451Z,6.43
2019-04-26T23:11:53.858Z,6.10
2019-04-26T23:14:36.746Z,7.00
2019-04-26T23:17:21.054Z,7.63
2019-04-26T23:19:57.510Z,7.50
2019-04-26T23:22:30.966Z,8.40
2019-04-26T23:24:58.151Z,6.80
2019-04-26T23:27:27.427Z,6.73
2019-04-26T23:29:58.332Z,6.63
2019-04-26T23:32:27.695Z,6.93
2019-04-26T23:34:58.254Z,6.80
2019-04-26T23:37:29.766Z,6.77
2019-04-26T23:39:59.163Z,11.23
2019-04-26T23:42:28.354Z,6.57
2019-04-26T23:44:57.456Z,7.63
2019-04-26T23:47:27.189Z,8.07
2019-04-26T23:49:57.117Z,7.70
2019-04-26T23:52:26.265Z,9.63
2019-04-26T23:54:55.423Z,7.53
2019-04-26T23:57:27.413Z,8.23
2019-04-26T23:59:59.799Z,7.00
